createdAt,value
2022-10-17T00:00:31.538Z,20.6
2022-10-17T00:01:36.255Z,21.5
2022-10-17T00:02:40.414Z,21.2
2022-10-17T00:03:44.555Z,20
2022-10-17T00:04:49.027Z,20.3
2022-10-17T00:05:53.233Z,20.7
2022-10-17T00:06:57.415Z,19.9
2022-10-17T00:08:01.603Z,20.8
2022-10-17T00:09:06.163Z,21.7
2022-10-17T00:10:10.192Z,20.6
2022-10-17T00:11:14.235Z,19.3
2022-10-17T00:12:18.373Z,21.3
2022-10-17T00:13:22.441Z,17.8
2022-10-17T00:14:26.483Z,21
2022-10-17T00:15:30.558Z,20.1
2022-10-17T00:16:35.104Z,19.2
2022-10-17T00:17:39.136Z,23.2
2022-10-17T00:18:43.387Z,22.2
2022-10-17T00:19:47.900Z,20.1
2022-10-17T00:20:52.068Z,20.1
2022-10-17T00:21:56.664Z,21
2022-10-17T00:23:00.707Z,20.3
2022-10-17T00:24:04.735Z,21.1
2022-10-17T00:25:08.871Z,19.4
2022-10-17T00:26:12.932Z,17.9
2022-10-17T00:27:16.998Z,18.3
2022-10-17T00:28:21.203Z,19.1
2022-10-17T00:29:25.838Z,20.8
2022-10-17T00:30:30.323Z,18.3
2022-10-17T00:31:34.425Z,21.1
2022-10-17T00:32:38.880Z,19.7
2022-10-17T00:33:43.007Z,20.3
2022-10-17T00:34:47.092Z,17.8
2022-10-17T00:35:51.249Z,19
2022-10-17T00:37:05.995Z,17.9
2022-10-17T00:38:10.132Z,18.9
2022-10-17T00:39:14.254Z,17.2
2022-10-17T00:40:18.840Z,19.8
2022-10-17T00:41:23.408Z,19.2
2022-10-17T00:42:28.054Z,18.5
2022-10-17T00:43:31.920Z,21.2
2022-10-17T00:44:46.708Z,20.2
2022-10-17T00:45:50.735Z,16.3
2022-10-17T00:46:54.924Z,18.2
2022-10-17T00:47:59.083Z,19.3
2022-10-17T00:49:03.200Z,20.5
2022-10-17T00:50:07.761Z,20.4
2022-10-17T00:51:12.227Z,22.4
2022-10-17T00:52:16.343Z,17.9
2022-10-17T00:53:26.548Z,19.7
2022-10-17T00:54:30.592Z,19.1
2022-10-17T00:55:34.651Z,16.9
2022-10-17T00:56:38.716Z,16.5
2022-10-17T00:57:42.781Z,18.1
2022-10-17T00:58:46.832Z,15.1
2022-10-17T00:59:50.971Z,17
2022-10-17T01:00:55.147Z,19.5
2022-10-17T01:01:59.320Z,18
2022-10-17T01:03:06.864Z,18.3
2022-10-17T01:04:10.995Z,19.2
2022-10-17T01:05:15.560Z,18
2022-10-17T01:06:20.163Z,19.5
2022-10-17T01:07:24.235Z,17.4
2022-10-17T01:08:28.824Z,17.1
2022-10-17T01:09:32.995Z,18.1
2022-10-17T01:10:37.488Z,19
2022-10-17T01:11:47.201Z,17.7
2022-10-17T01:13:01.980Z,17.7
2022-10-17T01:14:09.129Z,17
2022-10-17T01:15:23.865Z,17.8
2022-10-17T01:16:33.544Z,17.6
2022-10-17T01:17:43.216Z,17.6
2022-10-17T01:18:47.280Z,17.1
2022-10-17T01:19:56.445Z,16.7
2022-10-17T01:21:10.784Z,16.4
2022-10-17T01:22:17.867Z,17
2022-10-17T01:23:30.212Z,16.6
2022-10-17T01:24:44.824Z,19.4
2022-10-17T01:25:53.968Z,17.3
2022-10-17T01:27:08.324Z,18.4
2022-10-17T01:28:17.488Z,18.1
2022-10-17T01:29:29.840Z,16.5
2022-10-17T01:30:44.420Z,16.7
2022-10-17T01:31:56.700Z,19.5
2022-10-17T01:33:05.888Z,19.3
2022-10-17T01:34:18.132Z,17.3
2022-10-17T01:35:22.192Z,19.4
2022-10-17T01:36:29.292Z,15.7
2022-10-17T01:37:44.077Z,17.5
2022-10-17T01:38:53.152Z,17.8
2022-10-17T01:40:02.540Z,17.4
2022-10-17T01:41:09.667Z,21.3
2022-10-17T01:42:24.649Z,17.7
2022-10-17T01:43:34.194Z,18.1
2022-10-17T01:44:38.571Z,19.2
2022-10-17T01:45:42.748Z,19.7
2022-10-17T01:46:49.965Z,19
2022-10-17T01:47:57.128Z,16.4
2022-10-17T01:49:01.227Z,20.2
2022-10-17T01:50:05.711Z,17.7
2022-10-17T01:51:12.855Z,19.3
2022-10-17T01:52:23.519Z,18.8
2022-10-17T01:53:30.668Z,18.2
2022-10-17T01:54:34.737Z,18.4
2022-10-17T01:55:49.556Z,16.2
2022-10-17T01:56:54.071Z,15.6
2022-10-17T01:57:58.375Z,15.9
2022-10-17T01:59:05.914Z,17.7
2022-10-17T02:00:13.137Z,17.2
2022-10-17T02:01:17.684Z,17.2
2022-10-17T02:02:22.235Z,15
2022-10-17T02:03:26.855Z,17.9
2022-10-17T02:04:31.348Z,15.4
2022-10-17T02:05:35.379Z,18.1
2022-10-17T02:06:39.519Z,17.4
2022-10-17T02:07:43.595Z,17.6
2022-10-17T02:08:48.130Z,14.6
2022-10-17T02:09:52.166Z,17.5
2022-10-17T02:10:56.421Z,17.1
2022-10-17T02:12:06.123Z,16
2022-10-17T02:13:20.849Z,16.7
2022-10-17T02:14:33.016Z,18
2022-10-17T02:15:42.546Z,17.2
2022-10-17T02:16:51.856Z,17.5
2022-10-17T02:18:06.695Z,20
2022-10-17T02:19:16.344Z,17
2022-10-17T02:20:28.445Z,19.3
2022-10-17T02:21:37.684Z,17.9
2022-10-17T02:22:44.726Z,17.2
2022-10-17T02:23:51.963Z,16.9
2022-10-17T02:25:01.171Z,17.4
2022-10-17T02:26:13.447Z,15.9
2022-10-17T02:27:23.123Z,16.8
2022-10-17T02:28:32.864Z,17.3
2022-10-17T02:29:40.054Z,16.9
2022-10-17T02:30:47.018Z,18.3
2022-10-17T02:31:54.071Z,18.9
2022-10-17T02:33:00.959Z,17
2022-10-17T02:34:08.041Z,18.1
2022-10-17T02:35:17.627Z,19.8
2022-10-17T02:36:21.624Z,16.6
2022-10-17T02:37:25.936Z,21.3
2022-10-17T02:38:29.854Z,17.9
2022-10-17T02:39:34.372Z,18.1
2022-10-17T02:40:38.588Z,18.1
2022-10-17T02:41:43.107Z,17.5
2022-10-17T02:42:47.598Z,18.1
2022-10-17T02:43:51.814Z,18.5
2022-10-17T02:44:56.115Z,17.6
2022-10-17T02:46:00.523Z,21.4
2022-10-17T02:47:05.070Z,17.8
2022-10-17T02:48:14.263Z,17.8
2022-10-17T02:49:18.275Z,16.5
2022-10-17T02:50:25.564Z,18.6
2022-10-17T02:51:32.606Z,17
2022-10-17T02:52:44.763Z,18
2022-10-17T02:53:48.902Z,19.7
2022-10-17T02:55:03.190Z,18.1
2022-10-17T02:56:15.431Z,16.9
2022-10-17T02:57:19.486Z,16.7
2022-10-17T02:58:31.726Z,19.5
2022-10-17T02:59:36.341Z,16.5
2022-10-17T03:00:40.353Z,18.5
2022-10-17T03:01:44.483Z,17.7
2022-10-17T03:02:48.582Z,16.5
2022-10-17T03:03:53.175Z,18.3
2022-10-17T03:05:07.525Z,18.3
2022-10-17T03:06:11.557Z,18.1
2022-10-17T03:07:15.668Z,17.5
2022-10-17T03:08:19.812Z,17.9
2022-10-17T03:09:24.439Z,18.1
2022-10-17T03:10:28.872Z,17.8
2022-10-17T03:11:32.931Z,17.3
2022-10-17T03:12:37.214Z,18.2
2022-10-17T03:13:41.842Z,18.4
2022-10-17T03:14:46.386Z,16.4
2022-10-17T03:15:50.906Z,19.6
2022-10-17T03:16:55.523Z,17.9
2022-10-17T03:17:59.715Z,18.6
2022-10-17T03:19:03.886Z,16.4
2022-10-17T03:20:08.421Z,18.8
2022-10-17T03:21:12.951Z,18.7
2022-10-17T03:22:17.182Z,18.1
2022-10-17T03:23:21.650Z,20.4
2022-10-17T03:24:25.859Z,19.2
2022-10-17T03:25:30.394Z,19.4
2022-10-17T03:26:34.943Z,19.2
2022-10-17T03:27:38.903Z,20.8
2022-10-17T03:28:43.062Z,20.8
2022-10-17T03:29:47.606Z,19.3
2022-10-17T03:30:51.794Z,22
2022-10-17T03:31:56.279Z,19.7
2022-10-17T03:33:00.503Z,23.8
2022-10-17T03:34:04.709Z,22.9
2022-10-17T03:35:12.520Z,22.8
2022-10-17T03:36:13.890Z,18.8
2022-10-17T03:37:18.438Z,19.3
2022-10-17T03:38:23.054Z,21.2
2022-10-17T03:39:27.570Z,22.3
2022-10-17T03:40:31.779Z,20.9
2022-10-17T03:41:36.306Z,23.3
2022-10-17T03:42:40.875Z,24
2022-10-17T03:43:45.491Z,24
2022-10-17T03:44:50.422Z,20.7
2022-10-17T03:45:55.194Z,24.8
2022-10-17T03:46:59.762Z,24.3
2022-10-17T03:48:04.018Z,21.1
2022-10-17T03:49:08.607Z,21
2022-10-17T03:50:13.014Z,20.1
2022-10-17T03:51:17.550Z,21.9
2022-10-17T03:52:21.867Z,23
2022-10-17T03:53:26.699Z,22.6
2022-10-17T03:54:31.082Z,22.5
2022-10-17T03:55:35.502Z,20.9
2022-10-17T03:56:39.946Z,19.5
2022-10-17T03:57:45.380Z,18.2
2022-10-17T03:58:48.604Z,22.5
2022-10-17T03:59:52.791Z,20.6
2022-10-17T04:00:56.839Z,20.5
2022-10-17T04:02:03.570Z,20.9
2022-10-17T04:03:07.658Z,21.6
2022-10-17T04:04:11.639Z,20.6
2022-10-17T04:05:15.806Z,20.1
2022-10-17T04:06:19.818Z,19.9
2022-10-17T04:07:23.926Z,20.4
2022-10-17T04:08:28.030Z,20.5
2022-10-17T04:09:32.102Z,19.9
2022-10-17T04:10:36.198Z,19.7
2022-10-17T04:11:40.220Z,21.2
2022-10-17T04:12:44.314Z,21
2022-10-17T04:13:48.411Z,19.6
2022-10-17T04:14:52.414Z,20.4
2022-10-17T04:15:56.470Z,20.8
2022-10-17T04:17:00.847Z,21.8
2022-10-17T04:19:09.462Z,22.1
2022-10-17T04:20:13.610Z,20.5
2022-10-17T04:21:17.612Z,19.5
2022-10-17T04:22:21.674Z,17.8
2022-10-17T04:23:25.778Z,21.3
2022-10-17T04:24:29.996Z,20
2022-10-17T04:25:36.018Z,17.6
2022-10-17T04:26:38.561Z,19.3
2022-10-17T04:27:42.711Z,20.7
2022-10-17T04:28:47.162Z,20.8
2022-10-17T04:29:51.318Z,19.1
2022-10-17T04:30:55.437Z,20.9
2022-10-17T04:32:02.739Z,22.6
2022-10-17T04:33:06.923Z,22.3
2022-10-17T04:34:11.458Z,20.2
2022-10-17T04:35:16.010Z,21.9
2022-10-17T04:36:20.505Z,22.2
2022-10-17T04:37:24.771Z,23.5
2022-10-17T04:38:29.198Z,24.4
2022-10-17T04:39:33.187Z,27.5
2022-10-17T04:40:37.314Z,27.6
2022-10-17T04:41:41.363Z,25
2022-10-17T04:42:45.426Z,25.1
2022-10-17T04:43:50.941Z,23.8
2022-10-17T04:44:53.623Z,26
2022-10-17T04:45:58.114Z,22.3
2022-10-17T04:47:02.366Z,21.5
2022-10-17T04:48:06.514Z,19.8
2022-10-17T04:49:10.614Z,24.6
2022-10-17T04:50:14.730Z,24.5
2022-10-17T04:51:20.538Z,21.3
2022-10-17T04:52:23.290Z,21.4
2022-10-17T04:53:27.310Z,19.7
2022-10-17T04:54:31.479Z,21.5
2022-10-17T04:55:35.506Z,20.8
2022-10-17T04:56:39.550Z,22.4
2022-10-17T04:57:43.618Z,19.4
2022-10-17T04:58:47.766Z,17.6
2022-10-17T04:59:52.335Z,18.4
2022-10-17T05:00:56.960Z,18.8
2022-10-17T05:02:01.215Z,18.8
2022-10-17T05:03:05.765Z,19.8
2022-10-17T05:04:10.411Z,20.7
2022-10-17T05:05:14.942Z,19.6
2022-10-17T05:06:19.556Z,18.9
2022-10-17T05:07:24.202Z,21.6
2022-10-17T05:08:28.558Z,20.1
2022-10-17T05:09:32.838Z,19.8
2022-10-17T05:10:37.762Z,21.1
2022-10-17T05:11:44.890Z,21.5
2022-10-17T05:12:49.018Z,20.5
2022-10-17T05:13:53.495Z,19.8
2022-10-17T05:14:57.641Z,19.4
2022-10-17T05:16:01.790Z,20.3
2022-10-17T05:17:06.421Z,19.8
2022-10-17T05:18:10.946Z,19.9
2022-10-17T05:19:15.054Z,22.1
2022-10-17T05:20:19.662Z,21.5
2022-10-17T05:21:26.740Z,20.8
2022-10-17T05:22:31.719Z,20.9
2022-10-17T05:23:35.950Z,22
2022-10-17T05:24:40.166Z,21.5
2022-10-17T05:25:44.738Z,23
2022-10-17T05:26:49.314Z,23.7
2022-10-17T05:27:53.750Z,23.6
2022-10-17T05:28:58.309Z,25.7
2022-10-17T05:30:05.695Z,22.9
2022-10-17T05:31:10.121Z,22.9
2022-10-17T05:32:14.382Z,21.4
2022-10-17T05:33:18.889Z,24.1
2022-10-17T05:34:23.414Z,23.5
2022-10-17T05:35:28.261Z,20.1
2022-10-17T05:36:32.682Z,21.3
2022-10-17T05:37:37.198Z,22
2022-10-17T05:38:41.497Z,20
2022-10-17T05:39:50.577Z,20.8
2022-10-17T05:40:53.026Z,23.3
2022-10-17T05:41:57.546Z,24.3
2022-10-17T05:43:01.858Z,21.6
2022-10-17T05:44:06.433Z,24.8
2022-10-17T05:45:10.998Z,25.7
2022-10-17T05:46:15.590Z,26.9
2022-10-17T05:47:20.169Z,27
2022-10-17T05:48:24.701Z,21.3
2022-10-17T05:49:39.922Z,25.2
2022-10-17T05:50:33.329Z,25.5
2022-10-17T05:51:37.446Z,22.8
2022-10-17T05:52:43.881Z,21.9
2022-10-17T05:53:46.635Z,22.5
2022-10-17T05:54:51.194Z,21.7
2022-10-17T05:55:55.807Z,26.3
2022-10-17T05:56:59.922Z,20
2022-10-17T05:58:04.676Z,27.5
2022-10-17T05:59:09.138Z,24.7
2022-10-17T06:00:13.694Z,20.2
2022-10-17T06:01:18.510Z,22.2
2022-10-17T06:02:23.077Z,21.5
2022-10-17T06:03:27.468Z,20.6
2022-10-17T06:04:31.659Z,20.1
2022-10-17T06:05:36.279Z,18.2
2022-10-17T06:06:41.066Z,18.7
2022-10-17T06:07:45.413Z,19.7
2022-10-17T06:08:49.991Z,19.8
2022-10-17T06:09:54.206Z,17.4
2022-10-17T06:10:58.629Z,21.5
2022-10-17T06:12:02.780Z,18.2
2022-10-17T06:13:06.973Z,21.9
2022-10-17T06:14:11.417Z,18.1
2022-10-17T06:15:15.466Z,17.2
2022-10-17T06:16:19.545Z,19.3
2022-10-17T06:17:23.658Z,17
2022-10-17T06:18:27.814Z,19
2022-10-17T06:19:32.264Z,17
2022-10-17T06:20:36.371Z,18.5
2022-10-17T06:21:40.454Z,17.8
2022-10-17T06:22:44.675Z,20.5
2022-10-17T06:23:49.055Z,18.9
2022-10-17T06:24:53.219Z,17.6
2022-10-17T06:25:57.280Z,17.2
2022-10-17T06:27:01.479Z,17.9
2022-10-17T06:28:05.686Z,19.6
2022-10-17T06:29:10.279Z,15.4
2022-10-17T06:30:14.218Z,17.9
2022-10-17T06:31:18.575Z,22.8
2022-10-17T06:32:23.011Z,18.8
2022-10-17T06:33:27.604Z,19.6
2022-10-17T06:34:32.012Z,20.8
2022-10-17T06:35:36.264Z,20.3
2022-10-17T06:36:41.091Z,19.2
2022-10-17T06:37:45.428Z,17.6
2022-10-17T06:38:49.502Z,17.2
2022-10-17T06:39:53.963Z,21.2
2022-10-17T06:40:58.335Z,17.6
2022-10-17T06:42:07.961Z,19.2
2022-10-17T06:43:12.581Z,19.4
2022-10-17T06:44:17.075Z,26.1
2022-10-17T06:45:21.267Z,20.5
2022-10-17T06:46:25.743Z,18.1
2022-10-17T06:47:30.560Z,19.6
2022-10-17T06:48:34.452Z,19.8
2022-10-17T06:49:38.996Z,23.7
2022-10-17T06:50:43.500Z,19
2022-10-17T06:51:47.662Z,21.1
2022-10-17T06:52:52.232Z,18.8
2022-10-17T06:53:56.207Z,17.9
2022-10-17T06:55:00.546Z,18.5
2022-10-17T06:56:04.988Z,20.1
2022-10-17T06:57:09.123Z,19.5
2022-10-17T06:58:13.210Z,15.1
2022-10-17T06:59:17.227Z,17.2
2022-10-17T07:00:21.579Z,16.1
2022-10-17T07:01:25.903Z,19.5
2022-10-17T07:02:30.181Z,20.7
2022-10-17T07:03:34.159Z,17.8
2022-10-17T07:04:38.721Z,17.4
2022-10-17T07:05:43.255Z,16.8
2022-10-17T07:06:47.903Z,16.5
2022-10-17T07:07:52.463Z,15.2
2022-10-17T07:08:57.709Z,17.2
2022-10-17T07:10:01.891Z,15.8
2022-10-17T07:11:08.728Z,18.9
2022-10-17T07:12:13.659Z,17.5
2022-10-17T07:13:18.008Z,17.4
2022-10-17T07:14:27.555Z,20.2
2022-10-17T07:15:35.753Z,17.3
2022-10-17T07:16:50.066Z,16.1
2022-10-17T07:17:59.151Z,16.5
2022-10-17T07:19:07.143Z,17
2022-10-17T07:20:12.883Z,16.2
2022-10-17T07:21:17.175Z,15.9
2022-10-17T07:22:21.723Z,15.6
2022-10-17T07:23:26.339Z,18.9
2022-10-17T07:24:30.984Z,15.9
2022-10-17T07:25:37.735Z,16.4
2022-10-17T07:26:41.363Z,18.6
2022-10-17T07:27:46.279Z,15.6
2022-10-17T07:28:50.731Z,22.1
2022-10-17T07:29:55.191Z,17.6
2022-10-17T07:31:00.440Z,17.9
2022-10-17T07:32:07.683Z,17.1
2022-10-17T07:33:12.250Z,17.1
2022-10-17T07:34:17.158Z,17.1
2022-10-17T07:35:21.458Z,17.4
2022-10-17T07:36:26.043Z,18.3
2022-10-17T07:37:30.768Z,20.4
2022-10-17T07:38:35.412Z,15.1
2022-10-17T07:39:39.919Z,16.9
2022-10-17T07:40:44.478Z,18.5
2022-10-17T07:41:49.223Z,17.4
2022-10-17T07:42:54.871Z,19.1
2022-10-17T07:43:59.196Z,16.1
2022-10-17T07:45:03.267Z,19.5
2022-10-17T07:46:07.902Z,17.2
2022-10-17T07:47:11.912Z,19.2
2022-10-17T07:48:16.133Z,18.2
2022-10-17T07:49:20.748Z,17.5
2022-10-17T07:50:25.199Z,19.7
2022-10-17T07:51:29.936Z,17.7
2022-10-17T07:52:34.866Z,17.5
2022-10-17T07:53:39.079Z,17.7
2022-10-17T07:54:43.576Z,18.9
2022-10-17T07:55:47.558Z,19.7
2022-10-17T07:56:52.131Z,18.9
2022-10-17T07:57:56.310Z,16.5
2022-10-17T07:59:05.135Z,19.5
2022-10-17T08:00:08.424Z,16.8
2022-10-17T08:01:13.907Z,18.4
2022-10-17T08:02:17.387Z,17.4
2022-10-17T08:03:22.080Z,21.4
2022-10-17T08:04:26.478Z,17.7
2022-10-17T08:05:31.110Z,19.6
2022-10-17T08:06:35.695Z,19.3
2022-10-17T08:07:40.822Z,16.6
2022-10-17T08:08:45.375Z,15.8
2022-10-17T08:09:52.919Z,19.7
2022-10-17T08:10:57.163Z,19.4
2022-10-17T08:12:01.648Z,17.5
2022-10-17T08:13:06.741Z,19.6
2022-10-17T08:14:11.070Z,17.2
2022-10-17T08:15:15.447Z,18.6
2022-10-17T08:16:20.355Z,16.3
2022-10-17T08:17:24.651Z,16.5
2022-10-17T08:18:28.850Z,15.5
2022-10-17T08:19:33.346Z,16.2
2022-10-17T08:20:40.474Z,16
2022-10-17T08:21:44.530Z,17.1
2022-10-17T08:22:49.249Z,17.7
2022-10-17T08:23:53.798Z,16.3
2022-10-17T08:24:59.191Z,14.8
2022-10-17T08:26:03.519Z,16.1
2022-10-17T08:27:08.178Z,17.3
2022-10-17T08:28:12.761Z,15.7
2022-10-17T08:29:17.415Z,17.1
2022-10-17T08:30:21.994Z,16.1
2022-10-17T08:31:26.442Z,16.4
2022-10-17T08:32:30.952Z,15.8
2022-10-17T08:33:35.474Z,16
2022-10-17T08:34:39.762Z,17.2
2022-10-17T08:35:44.271Z,16.5
2022-10-17T08:36:50.967Z,18.8
2022-10-17T08:37:55.502Z,16.9
2022-10-17T08:38:59.979Z,14.8
2022-10-17T08:40:04.372Z,17.1
2022-10-17T08:41:08.898Z,19.3
2022-10-17T08:42:16.055Z,17.7
2022-10-17T08:43:26.246Z,16.7
2022-10-17T08:44:38.360Z,19.1
2022-10-17T08:45:50.718Z,15.3
2022-10-17T08:47:00.770Z,17.5
2022-10-17T08:48:05.012Z,15.5
2022-10-17T08:49:19.850Z,16.8
2022-10-17T08:50:24.351Z,13.7
2022-10-17T08:51:39.067Z,15.8
2022-10-17T08:52:46.690Z,15.2
2022-10-17T08:53:51.266Z,19.3
2022-10-17T08:54:55.386Z,18.7
2022-10-17T08:55:59.864Z,16.5
2022-10-17T08:57:07.662Z,18.4
2022-10-17T08:58:14.894Z,14.3
2022-10-17T08:59:19.495Z,16.8
2022-10-17T09:00:24.378Z,16.5
2022-10-17T09:01:28.700Z,15.9
2022-10-17T09:02:33.282Z,17
2022-10-17T09:03:37.906Z,18.5
2022-10-17T09:04:42.236Z,17.3
2022-10-17T09:05:51.499Z,17.1
2022-10-17T09:07:03.935Z,16.4
2022-10-17T09:08:13.447Z,16.2
2022-10-17T09:09:25.630Z,16.5
2022-10-17T09:10:30.155Z,16.9
2022-10-17T09:11:39.258Z,18.5
2022-10-17T09:12:48.419Z,16.4
2022-10-17T09:14:03.444Z,17.1
2022-10-17T09:15:12.994Z,15.3
2022-10-17T09:16:27.302Z,18.2
2022-10-17T09:17:34.342Z,16
2022-10-17T09:18:38.471Z,14.5
2022-10-17T09:19:51.035Z,18.2
2022-10-17T09:20:55.422Z,18
2022-10-17T09:22:05.634Z,15.1
2022-10-17T09:23:10.780Z,18.7
2022-10-17T09:24:21.157Z,18.6
2022-10-17T09:25:33.990Z,17.1
2022-10-17T09:26:41.250Z,16
2022-10-17T09:27:45.382Z,18
2022-10-17T09:28:53.455Z,14.6
2022-10-17T09:29:57.502Z,19.2
2022-10-17T09:31:07.590Z,19.8
2022-10-17T09:32:15.088Z,15.2
2022-10-17T09:33:28.080Z,15.4
2022-10-17T09:34:27.543Z,15.5
2022-10-17T09:35:31.387Z,17.4
2022-10-17T09:36:36.672Z,15.4
2022-10-17T09:37:40.923Z,14.7
2022-10-17T09:38:45.282Z,17.5
2022-10-17T09:39:50.100Z,15.3
2022-10-17T09:40:56.932Z,14.7
2022-10-17T09:41:58.421Z,15.5
2022-10-17T09:43:02.814Z,14.5
2022-10-17T09:44:07.590Z,18.3
2022-10-17T09:45:17.190Z,16.4
2022-10-17T09:46:21.594Z,15.9
2022-10-17T09:47:30.855Z,14.9
2022-10-17T09:48:34.938Z,17.6
2022-10-17T09:49:39.072Z,17.2
2022-10-17T09:50:43.074Z,18.7
2022-10-17T09:51:47.735Z,14.4
2022-10-17T09:52:51.874Z,15.3
2022-10-17T09:53:56.543Z,16.7
2022-10-17T09:55:01.162Z,18.9
2022-10-17T09:56:18.778Z,15.7
2022-10-17T09:57:28.926Z,12.8
2022-10-17T09:58:43.134Z,14.5
2022-10-17T09:59:50.562Z,13.2
2022-10-17T10:00:57.961Z,13.4
2022-10-17T10:02:02.791Z,14.7
2022-10-17T10:03:12.258Z,14.1
2022-10-17T10:04:19.462Z,13.1
2022-10-17T10:05:23.917Z,15.1
2022-10-17T10:06:28.110Z,13.1
2022-10-17T10:07:32.807Z,16.9
2022-10-17T10:08:37.275Z,15.7
2022-10-17T10:09:51.942Z,14.2
2022-10-17T10:10:56.054Z,13.9
2022-10-17T10:12:00.673Z,11.5
2022-10-17T10:13:05.452Z,11.8
2022-10-17T10:14:14.977Z,12.9
2022-10-17T10:15:24.607Z,14.8
2022-10-17T10:16:34.235Z,11.1
2022-10-17T10:17:38.304Z,16.2
2022-10-17T10:18:43.299Z,14.7
2022-10-17T10:19:47.006Z,13.5
2022-10-17T10:20:51.513Z,13.5
2022-10-17T10:22:05.958Z,12.8
2022-10-17T10:23:15.632Z,15.8
2022-10-17T10:24:20.187Z,15.6
2022-10-17T10:25:24.235Z,13.8
2022-10-17T10:26:28.450Z,14.3
2022-10-17T10:27:40.550Z,13.1
2022-10-17T10:28:45.448Z,13.5
2022-10-17T10:29:54.929Z,14.7
2022-10-17T10:30:59.334Z,13.9
2022-10-17T10:32:04.106Z,13
2022-10-17T10:33:16.992Z,18.9
2022-10-17T10:34:22.038Z,14.5
2022-10-17T10:35:26.546Z,15.2
2022-10-17T10:37:45.838Z,14.7
2022-10-17T10:38:53.722Z,16.7
2022-10-17T10:39:58.623Z,18.3
2022-10-17T10:41:03.163Z,13.9
2022-10-17T10:42:07.454Z,14.4
2022-10-17T10:43:22.066Z,12.8
2022-10-17T10:44:31.688Z,14
2022-10-17T10:45:47.319Z,20.2
2022-10-17T10:46:40.938Z,11.9
2022-10-17T10:47:45.702Z,14.9
2022-10-17T10:48:54.101Z,12.5
2022-10-17T10:49:58.312Z,15.1
2022-10-17T10:51:13.347Z,15
2022-10-17T10:52:17.678Z,13.8
2022-10-17T10:53:34.184Z,13.5
2022-10-17T10:54:42.108Z,15.3
2022-10-17T10:55:54.330Z,13
2022-10-17T10:57:06.570Z,17.1
2022-10-17T10:58:10.743Z,12.4
2022-10-17T10:59:20.474Z,15.4
2022-10-17T11:00:31.255Z,12.6
2022-10-17T11:01:35.725Z,12.8
2022-10-17T11:02:42.977Z,16.7
2022-10-17T11:03:52.604Z,12.4
2022-10-17T11:05:02.129Z,12.9
2022-10-17T11:06:11.581Z,13.7
2022-10-17T11:07:21.261Z,12.5
2022-10-17T11:08:28.246Z,13.9
2022-10-17T11:09:35.367Z,13
2022-10-17T11:10:50.054Z,14.9
2022-10-17T11:12:04.798Z,14.4
2022-10-17T11:13:15.092Z,13.3
2022-10-17T11:14:19.354Z,14.2
2022-10-17T11:15:31.481Z,13.7
2022-10-17T11:16:43.806Z,12.7
2022-10-17T11:17:48.327Z,13.5
2022-10-17T11:18:53.048Z,15.8
2022-10-17T11:20:00.661Z,12.8
2022-10-17T11:21:10.373Z,13.2
2022-10-17T11:22:20.276Z,12.4
2022-10-17T11:23:24.467Z,15.2
2022-10-17T11:24:39.202Z,15
2022-10-17T11:25:53.959Z,14.7
2022-10-17T11:26:58.062Z,13.3
2022-10-17T11:28:05.041Z,13.9
2022-10-17T11:29:12.933Z,15.3
2022-10-17T11:30:17.390Z,12.7
2022-10-17T11:31:24.474Z,12.7
2022-10-17T11:32:31.806Z,13.6
2022-10-17T11:33:40.930Z,13.5
2022-10-17T11:34:50.454Z,15.3
2022-10-17T11:35:58.826Z,13.8
2022-10-17T11:37:02.165Z,13.1
2022-10-17T11:38:06.402Z,14.1
2022-10-17T11:39:21.471Z,15.5
2022-10-17T11:40:30.757Z,13.7
2022-10-17T11:41:34.982Z,15.7
2022-10-17T11:42:39.570Z,13.9
2022-10-17T11:43:49.285Z,15.8
2022-10-17T11:44:58.969Z,14.3
2022-10-17T11:46:03.638Z,14.7
2022-10-17T11:47:13.263Z,15.9
2022-10-17T11:48:28.071Z,18.3
2022-10-17T11:49:33.954Z,16.2
2022-10-17T11:52:00.568Z,16.2
2022-10-17T11:52:56.259Z,14.4
2022-10-17T11:54:00.661Z,18.7
2022-10-17T11:55:10.366Z,17.7
2022-10-17T11:56:14.924Z,16.6
2022-10-17T11:57:18.933Z,16.8
2022-10-17T11:58:33.768Z,15.4
2022-10-17T11:59:48.556Z,14.5
2022-10-17T12:00:58.147Z,13.1
2022-10-17T12:02:10.409Z,14.5
2022-10-17T12:03:14.489Z,15.7
2022-10-17T12:04:21.740Z,13
2022-10-17T12:05:31.621Z,12.9
2022-10-17T12:06:46.125Z,12
2022-10-17T12:07:55.781Z,13.8
2022-10-17T12:09:00.346Z,15.2
2022-10-17T12:10:15.960Z,13.8
2022-10-17T12:11:31.197Z,13.6
2022-10-17T12:12:40.539Z,16.1
2022-10-17T12:13:47.757Z,14.3
2022-10-17T12:14:52.433Z,13.9
2022-10-17T12:16:01.997Z,14.7
2022-10-17T12:17:16.757Z,15.5
2022-10-17T12:18:28.957Z,13.4
2022-10-17T12:19:33.018Z,15.8
2022-10-17T12:20:37.498Z,17
2022-10-17T12:21:43.413Z,13.4
2022-10-17T12:22:56.500Z,14
2022-10-17T12:24:12.665Z,14
2022-10-17T12:25:18.481Z,17.2
2022-10-17T12:26:22.683Z,16.5
2022-10-17T12:27:27.387Z,17.7
2022-10-17T12:28:39.565Z,14.8
2022-10-17T12:29:46.416Z,12.6
2022-10-17T12:30:50.557Z,14
2022-10-17T12:32:02.786Z,14.8
2022-10-17T12:33:10.105Z,15.1
2022-10-17T12:34:22.291Z,16.2
2022-10-17T12:35:26.806Z,15.4
2022-10-17T12:36:31.043Z,14.7
2022-10-17T12:37:35.433Z,15.6
2022-10-17T12:38:50.442Z,13.9
2022-10-17T12:40:02.425Z,14.3
2022-10-17T12:41:07.080Z,15.4
2022-10-17T12:42:11.337Z,14.8
2022-10-17T12:43:23.793Z,14.7
2022-10-17T12:44:28.724Z,16.8
2022-10-17T12:45:32.521Z,13.4
2022-10-17T12:46:47.225Z,15.3
2022-10-17T12:47:56.962Z,15.3
2022-10-17T12:49:01.658Z,16.6
2022-10-17T12:50:06.229Z,15.8
2022-10-17T12:51:35.556Z,14.1
2022-10-17T12:52:20.440Z,16.2
2022-10-17T12:53:33.629Z,16.1
2022-10-17T12:54:47.542Z,14.7
2022-10-17T12:55:50.981Z,14
2022-10-17T12:57:00.701Z,16.3
2022-10-17T12:58:05.173Z,15.1
2022-10-17T12:59:09.420Z,17.3
2022-10-17T13:00:16.558Z,19.7
2022-10-17T13:01:26.265Z,13.7
2022-10-17T13:02:33.301Z,16
2022-10-17T13:03:37.801Z,15.4
2022-10-17T13:04:41.913Z,15
2022-10-17T13:05:46.542Z,15.3
2022-10-17T13:06:50.622Z,13.4
2022-10-17T13:07:54.725Z,15.6
2022-10-17T13:09:03.206Z,14.1
2022-10-17T13:10:02.968Z,13
2022-10-17T13:11:07.563Z,15.7
2022-10-17T13:12:12.274Z,13
2022-10-17T13:13:19.390Z,13.9
2022-10-17T13:14:28.993Z,14.3
2022-10-17T13:15:32.969Z,13.8
2022-10-17T13:16:37.073Z,24.7
2022-10-17T13:17:43.749Z,16.7
2022-10-17T13:18:45.786Z,17.7
2022-10-17T13:19:50.477Z,15.1
2022-10-17T13:20:54.876Z,14.5
2022-10-17T13:22:06.266Z,15.1
2022-10-17T13:23:16.508Z,15.3
2022-10-17T13:24:23.747Z,14.7
2022-10-17T13:25:31.365Z,14.1
2022-10-17T13:26:35.726Z,14.3
2022-10-17T13:27:40.441Z,12.8
2022-10-17T13:28:45.110Z,15.6
2022-10-17T13:29:59.692Z,17.7
2022-10-17T13:31:04.272Z,12.8
2022-10-17T13:32:08.537Z,15.7
2022-10-17T13:33:12.574Z,15
2022-10-17T13:34:17.204Z,14.4
2022-10-17T13:35:27.836Z,18.5
2022-10-17T13:36:33.689Z,14.5
2022-10-17T13:37:38.281Z,15.1
2022-10-17T13:38:42.748Z,14.8
2022-10-17T13:40:00.179Z,16.1
2022-10-17T13:41:01.292Z,14.8
2022-10-17T13:41:57.276Z,22.7
2022-10-17T13:43:01.946Z,13.9
2022-10-17T13:44:06.457Z,14
2022-10-17T13:45:10.801Z,16.4
2022-10-17T13:46:35.899Z,15
2022-10-17T13:47:30.894Z,16.2
2022-10-17T13:48:34.909Z,13.7
2022-10-17T13:49:39.480Z,15.1
2022-10-17T13:50:44.729Z,12.3
2022-10-17T13:51:48.186Z,14.6
2022-10-17T13:52:52.422Z,14.1
2022-10-17T13:54:07.279Z,13.3
2022-10-17T13:55:19.796Z,15.6
2022-10-17T13:56:29.451Z,11.2
2022-10-17T13:57:29.700Z,14.9
2022-10-17T13:58:33.929Z,16.2
2022-10-17T13:59:43.105Z,14.1
2022-10-17T14:00:50.632Z,15.6
2022-10-17T14:01:55.046Z,14.2
2022-10-17T14:02:59.249Z,14.5
2022-10-17T14:04:19.373Z,12.1
2022-10-17T14:05:17.552Z,14.6
2022-10-17T14:06:16.309Z,13.9
2022-10-17T14:07:20.513Z,10.9
2022-10-17T14:08:25.443Z,12.1
2022-10-17T14:09:29.709Z,13.9
2022-10-17T14:10:33.993Z,14.9
2022-10-17T14:11:38.593Z,14.9
2022-10-17T14:12:43.175Z,15.9
2022-10-17T14:13:47.821Z,12.7
2022-10-17T14:15:09.563Z,13
2022-10-17T14:15:56.889Z,12.9
2022-10-17T14:17:01.205Z,13
2022-10-17T14:18:15.720Z,14
2022-10-17T14:19:20.383Z,12.9
2022-10-17T14:20:57.413Z,14.1
2022-10-17T14:21:43.163Z,12.3
2022-10-17T14:22:36.853Z,15.1
2022-10-17T14:23:41.333Z,13.1
2022-10-17T14:24:45.902Z,13.5
2022-10-17T14:25:50.509Z,14.6
2022-10-17T14:27:05.341Z,13.7
2022-10-17T14:28:19.879Z,11.8
2022-10-17T14:29:24.463Z,21.1
2022-10-17T14:30:52.041Z,17.9
2022-10-17T14:31:36.341Z,12
2022-10-17T14:32:41.429Z,13.9
2022-10-17T14:33:49.695Z,12.8
2022-10-17T14:34:50.650Z,13.8
2022-10-17T14:35:55.134Z,11.5
2022-10-17T14:36:59.210Z,12.9
2022-10-17T14:38:03.751Z,11.7
2022-10-17T14:39:11.993Z,10.5
2022-10-17T14:40:12.370Z,12.7
2022-10-17T14:41:41.177Z,11.5
2022-10-17T14:42:25.667Z,10.4
2022-10-17T14:43:30.280Z,16.1
2022-10-17T14:44:34.510Z,11.7
2022-10-17T14:45:39.042Z,14.3
2022-10-17T14:46:45.413Z,11.7
2022-10-17T14:47:47.948Z,11.8
2022-10-17T14:48:52.506Z,10.3